sensor_id;sensor_type;location;lat;lon;timestamp;pressure;altitude;pressure_sealevel;temperature;humidity
50518;BME280;37075;44.084;2.962;2023-08-30T00:00:39;97335.03;;;17.19;51.64
50518;BME280;37075;44.084;2.962;2023-08-30T00:03:25;97340.13;;;17.17;51.88
50518;BME280;37075;44.084;2.962;2023-08-30T00:06:11;97339.69;;;17.11;52.14
50518;BME280;37075;44.084;2.962;2023-08-30T00:08:58;97330.69;;;17.18;51.51
50518;BME280;37075;44.084;2.962;2023-08-30T00:11:44;97336.56;;;17.16;51.80
50518;BME280;37075;44.084;2.962;2023-08-30T00:14:30;97331.06;;;17.16;51.57
50518;BME280;37075;44.084;2.962;2023-08-30T00:17:17;97328.31;;;17.16;51.42
50518;BME280;37075;44.084;2.962;2023-08-30T00:20:04;97327.50;;;17.12;51.48
50518;BME280;37075;44.084;2.962;2023-08-30T00:22:53;97325.91;;;17.08;51.70
50518;BME280;37075;44.084;2.962;2023-08-30T00:25:41;97320.78;;;17.06;51.66
50518;BME280;37075;44.084;2.962;2023-08-30T00:28:27;97329.41;;;17.01;51.86
50518;BME280;37075;44.084;2.962;2023-08-30T00:31:13;97322.72;;;17.02;51.69
50518;BME280;37075;44.084;2.962;2023-08-30T00:33:59;97310.13;;;17.01;51.47
50518;BME280;37075;44.084;2.962;2023-08-30T00:36:45;97311.69;;;16.99;51.54
50518;BME280;37075;44.084;2.962;2023-08-30T00:39:31;97312.47;;;16.95;51.76
50518;BME280;37075;44.084;2.962;2023-08-30T00:42:20;97311.28;;;16.93;51.83
50518;BME280;37075;44.084;2.962;2023-08-30T00:45:07;97316.75;;;16.89;52.40
50518;BME280;37075;44.084;2.962;2023-08-30T00:47:54;97310.03;;;16.83;52.17
50518;BME280;37075;44.084;2.962;2023-08-30T00:50:40;97306.47;;;16.83;52.46
50518;BME280;37075;44.084;2.962;2023-08-30T00:53:27;97298.59;;;16.81;52.56
50518;BME280;37075;44.084;2.962;2023-08-30T00:56:13;97297.81;;;16.81;52.69
50518;BME280;37075;44.084;2.962;2023-08-30T00:59:01;97302.91;;;16.79;52.44
50518;BME280;37075;44.084;2.962;2023-08-30T01:01:47;97296.59;;;16.75;52.61
50518;BME280;37075;44.084;2.962;2023-08-30T01:04:33;97297.28;;;16.64;52.79
50518;BME280;37075;44.084;2.962;2023-08-30T01:07:19;97302.00;;;16.64;52.70
50518;BME280;37075;44.084;2.962;2023-08-30T01:10:06;97300.41;;;16.59;52.95
50518;BME280;37075;44.084;2.962;2023-08-30T01:13:13;97290.94;;;16.57;53.00
50518;BME280;37075;44.084;2.962;2023-08-30T01:16:05;97298.78;;;16.55;52.93
50518;BME280;37075;44.084;2.962;2023-08-30T01:18:52;97294.03;;;16.48;53.41
50518;BME280;37075;44.084;2.962;2023-08-30T01:21:48;97295.56;;;16.42;53.45
50518;BME280;37075;44.084;2.962;2023-08-30T01:24:44;97298.31;;;16.42;53.51
50518;BME280;37075;44.084;2.962;2023-08-30T01:27:33;97286.91;;;16.40;53.57
50518;BME280;37075;44.084;2.962;2023-08-30T01:30:22;97295.16;;;16.40;53.52
50518;BME280;37075;44.084;2.962;2023-08-30T01:33:13;97288.88;;;16.40;53.38
50518;BME280;37075;44.084;2.962;2023-08-30T01:36:01;97291.63;;;16.40;53.38
50518;BME280;37075;44.084;2.962;2023-08-30T01:38:48;97273.09;;;16.37;53.57
50518;BME280;37075;44.084;2.962;2023-08-30T01:41:35;97285.28;;;16.35;53.50
50518;BME280;37075;44.084;2.962;2023-08-30T01:44:23;97276.59;;;16.30;53.87
50518;BME280;37075;44.084;2.962;2023-08-30T01:47:11;97278.56;;;16.29;53.76
50518;BME280;37075;44.084;2.962;2023-08-30T01:49:58;97273.81;;;16.26;53.83
50518;BME280;37075;44.084;2.962;2023-08-30T01:52:45;97271.06;;;16.26;53.75
50518;BME280;37075;44.084;2.962;2023-08-30T01:55:32;97269.88;;;16.24;53.63
50518;BME280;37075;44.084;2.962;2023-08-30T01:58:18;97269.47;;;16.22;53.72
50518;BME280;37075;44.084;2.962;2023-08-30T02:01:06;97265.91;;;16.18;53.77
50518;BME280;37075;44.084;2.962;2023-08-30T02:03:53;97276.50;;;16.16;53.79
50518;BME280;37075;44.084;2.962;2023-08-30T02:06:42;97274.47;;;16.13;54.10
50518;BME280;37075;44.084;2.962;2023-08-30T02:09:37;97259.91;;;16.09;54.40
50518;BME280;37075;44.084;2.962;2023-08-30T02:12:32;97272.47;;;16.06;54.33
50518;BME280;37075;44.084;2.962;2023-08-30T02:15:23;97263.81;;;16.04;54.36
50518;BME280;37075;44.084;2.962;2023-08-30T02:18:11;97266.53;;;16.00;54.50
50518;BME280;37075;44.084;2.962;2023-08-30T02:20:58;97267.28;;;15.97;54.67
50518;BME280;37075;44.084;2.962;2023-08-30T02:23:44;97267.66;;;15.92;54.67
50518;BME280;37075;44.084;2.962;2023-08-30T02:26:29;97263.69;;;15.90;54.94
50518;BME280;37075;44.084;2.962;2023-08-30T02:29:15;97273.47;;;15.87;54.86
50518;BME280;37075;44.084;2.962;2023-08-30T02:32:01;97276.56;;;15.82;55.06
50518;BME280;37075;44.084;2.962;2023-08-30T02:34:51;97278.50;;;15.78;55.14
50518;BME280;37075;44.084;2.962;2023-08-30T02:37:39;97274.53;;;15.72;55.22
50518;BME280;37075;44.084;2.962;2023-08-30T02:40:26;97278.78;;;15.66;55.31
50518;BME280;37075;44.084;2.962;2023-08-30T02:43:12;97278.69;;;15.59;55.46
50518;BME280;37075;44.084;2.962;2023-08-30T02:45:59;97283.31;;;15.51;55.57
50518;BME280;37075;44.084;2.962;2023-08-30T02:48:46;97287.56;;;15.45;55.78
50518;BME280;37075;44.084;2.962;2023-08-30T02:51:34;97276.88;;;15.36;55.96
50518;BME280;37075;44.084;2.962;2023-08-30T02:54:20;97290.50;;;15.29;56.13
50518;BME280;37075;44.084;2.962;2023-08-30T02:57:08;97290.44;;;15.22;56.40
50518;BME280;37075;44.084;2.962;2023-08-30T02:59:53;97283.69;;;15.16;56.42
50518;BME280;37075;44.084;2.962;2023-08-30T03:02:40;97289.81;;;15.06;56.69
50518;BME280;37075;44.084;2.962;2023-08-30T03:05:27;97296.41;;;14.98;56.77
50518;BME280;37075;44.084;2.962;2023-08-30T03:08:15;97293.56;;;14.91;56.97
50518;BME280;37075;44.084;2.962;2023-08-30T03:11:08;97290.72;;;14.84;57.06
50518;BME280;37075;44.084;2.962;2023-08-30T03:13:55;97288.28;;;14.78;57.00
50518;BME280;37075;44.084;2.962;2023-08-30T03:16:41;97288.19;;;14.71;57.24
50518;BME280;37075;44.084;2.962;2023-08-30T03:19:27;97292.00;;;14.63;57.45
50518;BME280;37075;44.084;2.962;2023-08-30T03:22:14;97283.31;;;14.58;57.58
50518;BME280;37075;44.084;2.962;2023-08-30T03:25:01;97286.34;;;14.53;57.69
50518;BME280;37075;44.084;2.962;2023-08-30T03:27:48;97281.97;;;14.48;57.87
50518;BME280;37075;44.084;2.962;2023-08-30T03:30:34;97292.44;;;14.42;57.86
50518;BME280;37075;44.084;2.962;2023-08-30T03:33:21;97288.44;;;14.36;57.83
50518;BME280;37075;44.084;2.962;2023-08-30T03:36:07;97285.56;;;14.29;57.86
50518;BME280;37075;44.084;2.962;2023-08-30T03:38:54;97283.88;;;14.21;58.09
50518;BME280;37075;44.084;2.962;2023-08-30T03:41:42;97284.19;;;14.16;58.14
50518;BME280;37075;44.084;2.962;2023-08-30T03:44:28;97282.56;;;14.11;58.16
50518;BME280;37075;44.084;2.962;2023-08-30T03:47:14;97285.63;;;14.06;58.23
50518;BME280;37075;44.084;2.962;2023-08-30T03:50:00;97283.91;;;13.98;58.54
50518;BME280;37075;44.084;2.962;2023-08-30T03:52:46;97286.16;;;13.93;58.71
50518;BME280;37075;44.084;2.962;2023-08-30T03:55:32;97286.09;;;13.89;58.70
50518;BME280;37075;44.084;2.962;2023-08-30T03:58:20;97289.88;;;13.81;59.00
50518;BME280;37075;44.084;2.962;2023-08-30T04:01:08;97291.31;;;13.75;58.93
50518;BME280;37075;44.084;2.962;2023-08-30T04:03:54;97295.94;;;13.71;59.08
50518;BME280;37075;44.084;2.962;2023-08-30T04:06:39;97292.34;;;13.67;59.13
50518;BME280;37075;44.084;2.962;2023-08-30T04:09:26;97287.97;;;13.62;59.12
50518;BME280;37075;44.084;2.962;2023-08-30T04:12:12;97291.81;;;13.57;59.51
50518;BME280;37075;44.084;2.962;2023-08-30T04:15:00;97285.69;;;13.45;60.19
50518;BME280;37075;44.084;2.962;2023-08-30T04:17:46;97284.47;;;13.42;59.97
50518;BME280;37075;44.084;2.962;2023-08-30T04:20:32;97288.22;;;13.34;60.37
50518;BME280;37075;44.084;2.962;2023-08-30T04:23:36;97282.16;;;13.25;60.76
50518;BME280;37075;44.084;2.962;2023-08-30T04:26:23;97296.06;;;13.16;61.67
50518;BME280;37075;44.084;2.962;2023-08-30T04:29:09;97299.31;;;13.03;62.78
50518;BME280;37075;44.084;2.962;2023-08-30T04:31:56;97299.31;;;13.03;62.45
50518;BME280;37075;44.084;2.962;2023-08-30T04:34:42;97295.84;;;13.06;62.19
50518;BME280;37075;44.084;2.962;2023-08-30T04:37:30;97306.78;;;13.06;62.13
50518;BME280;37075;44.084;2.962;2023-08-30T04:40:16;97297.78;;;13.05;61.96
50518;BME280;37075;44.084;2.962;2023-08-30T04:43:02;97306.38;;;13.04;62.15
50518;BME280;37075;44.084;2.962;2023-08-30T04:45:49;97309.47;;;13.02;62.15
50518;BME280;37075;44.084;2.962;2023-08-30T04:48:36;97302.72;;;13.00;62.10
50518;BME280;37075;44.084;2.962;2023-08-30T04:51:22;97313.25;;;12.97;62.04
50518;BME280;37075;44.084;2.962;2023-08-30T04:54:09;97312.38;;;12.93;62.07
50518;BME280;37075;44.084;2.962;2023-08-30T04:56:55;97309.16;;;12.88;62.22
50518;BME280;37075;44.084;2.962;2023-08-30T04:59:42;97316.84;;;12.82;62.72
50518;BME280;37075;44.084;2.962;2023-08-30T05:02:28;97304.31;;;12.81;62.71
50518;BME280;37075;44.084;2.962;2023-08-30T05:05:21;97306.63;;;12.79;62.62
50518;BME280;37075;44.084;2.962;2023-08-30T05:08:07;97314.41;;;12.77;62.90
50518;BME280;37075;44.084;2.962;2023-08-30T05:10:53;97307.94;;;12.70;63.15
50518;BME280;37075;44.084;2.962;2023-08-30T05:13:39;97299.31;;;12.68;63.23
50518;BME280;37075;44.084;2.962;2023-08-30T05:16:25;97301.63;;;12.65;62.96
50518;BME280;37075;44.084;2.962;2023-08-30T05:19:12;97307.44;;;12.64;63.43
50518;BME280;37075;44.084;2.962;2023-08-30T05:22:00;97311.34;;;12.63;63.32
50518;BME280;37075;44.084;2.962;2023-08-30T05:24:47;97307.00;;;12.62;63.44
50518;BME280;37075;44.084;2.962;2023-08-30T05:27:33;97310.47;;;12.59;63.73
50518;BME280;37075;44.084;2.962;2023-08-30T05:30:19;97314.00;;;12.59;63.48
50518;BME280;37075;44.084;2.962;2023-08-30T05:33:05;97316.28;;;12.57;63.80
50518;BME280;37075;44.084;2.962;2023-08-30T05:36:07;97314.72;;;12.56;63.73
50518;BME280;37075;44.084;2.962;2023-08-30T05:39:13;97318.94;;;12.54;63.84
50518;BME280;37075;44.084;2.962;2023-08-30T05:42:06;97316.13;;;12.50;64.11
50518;BME280;37075;44.084;2.962;2023-08-30T05:44:53;97320.47;;;12.51;64.28
50518;BME280;37075;44.084;2.962;2023-08-30T05:47:39;97323.19;;;12.51;64.48
50518;BME280;37075;44.084;2.962;2023-08-30T05:50:25;97324.00;;;12.52;64.36
50518;BME280;37075;44.084;2.962;2023-08-30T05:53:11;97316.22;;;12.54;64.78
50518;BME280;37075;44.084;2.962;2023-08-30T05:55:58;97322.13;;;12.56;64.92
50518;BME280;37075;44.084;2.962;2023-08-30T05:58:45;97315.50;;;12.57;65.07
50518;BME280;37075;44.084;2.962;2023-08-30T06:01:31;97317.88;;;12.58;65.25
50518;BME280;37075;44.084;2.962;2023-08-30T06:04:18;97320.25;;;12.60;65.12
50518;BME280;37075;44.084;2.962;2023-08-30T06:07:04;97316.81;;;12.63;65.54
50518;BME280;37075;44.084;2.962;2023-08-30T06:09:50;97318.03;;;12.65;65.63
50518;BME280;37075;44.084;2.962;2023-08-30T06:12:37;97315.72;;;12.68;65.59
50518;BME280;37075;44.084;2.962;2023-08-30T06:15:24;97323.22;;;12.71;65.90
50518;BME280;37075;44.084;2.962;2023-08-30T06:18:10;97310.75;;;12.73;66.06
50518;BME280;37075;44.084;2.962;2023-08-30T06:20:56;97329.66;;;12.78;66.05
50518;BME280;37075;44.084;2.962;2023-08-30T06:23:42;97327.00;;;12.82;66.14
50518;BME280;37075;44.084;2.962;2023-08-30T06:26:28;97327.88;;;12.86;66.36
50518;BME280;37075;44.084;2.962;2023-08-30T06:29:15;97333.50;;;12.93;66.18
50518;BME280;37075;44.084;2.962;2023-08-30T06:32:20;97328.88;;;12.97;66.46
50518;BME280;37075;44.084;2.962;2023-08-30T06:35:07;97328.25;;;13.04;66.34
50518;BME280;37075;44.084;2.962;2023-08-30T06:37:53;97326.81;;;13.10;66.34
50518;BME280;37075;44.084;2.962;2023-08-30T06:40:43;97327.31;;;13.15;66.62
50518;BME280;37075;44.084;2.962;2023-08-30T06:43:29;97331.75;;;13.20;66.76
50518;BME280;37075;44.084;2.962;2023-08-30T06:46:17;97332.25;;;13.25;66.59
50518;BME280;37075;44.084;2.962;2023-08-30T06:49:03;97341.34;;;13.30;66.60
50518;BME280;37075;44.084;2.962;2023-08-30T06:51:49;97344.22;;;13.37;66.81
50518;BME280;37075;44.084;2.962;2023-08-30T06:54:35;97346.75;;;13.45;66.81
50518;BME280;37075;44.084;2.962;2023-08-30T06:57:21;97341.06;;;13.54;66.71
50518;BME280;37075;44.084;2.962;2023-08-30T07:00:08;97342.78;;;13.62;66.91
50518;BME280;37075;44.084;2.962;2023-08-30T07:02:56;97345.63;;;13.69;66.63
50518;BME280;37075;44.084;2.962;2023-08-30T07:05:42;97352.47;;;13.79;66.61
50518;BME280;37075;44.084;2.962;2023-08-30T07:08:28;97345.97;;;13.87;66.41
50518;BME280;37075;44.084;2.962;2023-08-30T07:11:14;97345.38;;;13.97;66.20
50518;BME280;37075;44.084;2.962;2023-08-30T07:14:00;97350.28;;;14.07;66.41
50518;BME280;37075;44.084;2.962;2023-08-30T07:17:05;97341.00;;;14.15;66.21
50518;BME280;37075;44.084;2.962;2023-08-30T07:19:53;97352.94;;;14.27;65.88
50518;BME280;37075;44.084;2.962;2023-08-30T07:22:39;97356.66;;;14.38;65.64
50518;BME280;37075;44.084;2.962;2023-08-30T07:25:25;97355.31;;;14.51;65.78
50518;BME280;37075;44.084;2.962;2023-08-30T07:28:11;97355.50;;;14.62;65.86
50518;BME280;37075;44.084;2.962;2023-08-30T07:31:03;97352.16;;;14.75;65.92
50518;BME280;37075;44.084;2.962;2023-08-30T07:33:50;97342.94;;;14.87;65.76
50518;BME280;37075;44.084;2.962;2023-08-30T07:36:37;97347.78;;;14.97;65.44
50518;BME280;37075;44.084;2.962;2023-08-30T07:39:42;97349.84;;;15.04;64.85
50518;BME280;37075;44.084;2.962;2023-08-30T07:42:28;97347.63;;;15.13;64.87
50518;BME280;37075;44.084;2.962;2023-08-30T07:45:15;97340.63;;;15.19;63.17
50518;BME280;37075;44.084;2.962;2023-08-30T07:48:02;97350.91;;;15.26;61.17
50518;BME280;37075;44.084;2.962;2023-08-30T07:50:48;97351.00;;;15.33;60.27
50518;BME280;37075;44.084;2.962;2023-08-30T07:53:35;97352.31;;;15.42;59.83
50518;BME280;37075;44.084;2.962;2023-08-30T07:56:21;97343.34;;;15.49;59.43
50518;BME280;37075;44.084;2.962;2023-08-30T07:59:07;97345.94;;;15.65;59.44
50518;BME280;37075;44.084;2.962;2023-08-30T08:02:12;97345.63;;;15.73;58.56
50518;BME280;37075;44.084;2.962;2023-08-30T08:04:58;97344.88;;;15.77;58.25
50518;BME280;37075;44.084;2.962;2023-08-30T08:07:45;97342.19;;;15.84;57.81
50518;BME280;37075;44.084;2.962;2023-08-30T08:10:33;97336.00;;;15.90;57.55
50518;BME280;37075;44.084;2.962;2023-08-30T08:13:19;97345.50;;;16.00;57.36
50518;BME280;37075;44.084;2.962;2023-08-30T08:16:05;97338.91;;;16.08;57.06
50518;BME280;37075;44.084;2.962;2023-08-30T08:18:51;97342.53;;;16.16;56.53
50518;BME280;37075;44.084;2.962;2023-08-30T08:21:38;97345.78;;;16.28;56.73
50518;BME280;37075;44.084;2.962;2023-08-30T08:24:24;97340.31;;;16.35;56.34
50518;BME280;37075;44.084;2.962;2023-08-30T08:27:12;97345.50;;;16.41;55.98
50518;BME280;37075;44.084;2.962;2023-08-30T08:29:58;97347.09;;;16.45;55.95
50518;BME280;37075;44.084;2.962;2023-08-30T08:32:45;97351.50;;;16.57;55.72
50518;BME280;37075;44.084;2.962;2023-08-30T08:35:32;97353.97;;;16.65;55.41
50518;BME280;37075;44.084;2.962;2023-08-30T08:38:18;97350.88;;;16.71;55.39
50518;BME280;37075;44.084;2.962;2023-08-30T08:41:05;97358.03;;;16.82;55.10
50518;BME280;37075;44.084;2.962;2023-08-30T08:43:53;97356.88;;;16.90;54.23
50518;BME280;37075;44.084;2.962;2023-08-30T08:46:40;97356.19;;;17.04;55.15
50518;BME280;37075;44.084;2.962;2023-08-30T08:49:27;97354.28;;;17.15;54.44
50518;BME280;37075;44.084;2.962;2023-08-30T08:52:14;97365.41;;;17.30;53.91
50518;BME280;37075;44.084;2.962;2023-08-30T08:55:01;97358.34;;;17.43;53.99
50518;BME280;37075;44.084;2.962;2023-08-30T08:57:48;97354.88;;;17.60;53.36
50518;BME280;37075;44.084;2.962;2023-08-30T09:00:37;97363.59;;;17.69;52.28
50518;BME280;37075;44.084;2.962;2023-08-30T09:03:24;97363.66;;;17.76;51.93
50518;BME280;37075;44.084;2.962;2023-08-30T09:06:11;97357.38;;;17.90;52.01
50518;BME280;37075;44.084;2.962;2023-08-30T09:08:57;97351.50;;;18.02;51.57
50518;BME280;37075;44.084;2.962;2023-08-30T09:11:43;97347.19;;;18.15;51.72
50518;BME280;37075;44.084;2.962;2023-08-30T09:14:29;97347.59;;;18.28;51.99
50518;BME280;37075;44.084;2.962;2023-08-30T09:17:17;97342.88;;;18.36;51.56
50518;BME280;37075;44.084;2.962;2023-08-30T09:20:10;97353.91;;;18.46;50.58
50518;BME280;37075;44.084;2.962;2023-08-30T09:22:57;97352.34;;;18.60;50.58
50518;BME280;37075;44.084;2.962;2023-08-30T09:26:02;97353.13;;;18.71;50.68
50518;BME280;37075;44.084;2.962;2023-08-30T09:28:48;97350.41;;;18.78;49.48
50518;BME280;37075;44.084;2.962;2023-08-30T09:31:35;97349.19;;;18.90;49.65
50518;BME280;37075;44.084;2.962;2023-08-30T09:34:23;97355.50;;;18.94;49.54
50518;BME280;37075;44.084;2.962;2023-08-30T09:37:19;97362.97;;;18.97;48.76
50518;BME280;37075;44.084;2.962;2023-08-30T09:40:06;97359.84;;;19.02;48.44
50518;BME280;37075;44.084;2.962;2023-08-30T09:42:53;97358.63;;;19.10;48.52
50518;BME280;37075;44.084;2.962;2023-08-30T09:45:40;97360.19;;;19.18;48.38
50518;BME280;37075;44.084;2.962;2023-08-30T09:48:28;97362.56;;;19.16;48.13
50518;BME280;37075;44.084;2.962;2023-08-30T09:51:19;97359.78;;;19.20;47.64
50518;BME280;37075;44.084;2.962;2023-08-30T09:54:06;97365.31;;;19.27;47.60
50518;BME280;37075;44.084;2.962;2023-08-30T09:56:56;97362.91;;;19.36;47.76
50518;BME280;37075;44.084;2.962;2023-08-30T09:59:45;97370.00;;;19.37;46.97
50518;BME280;37075;44.084;2.962;2023-08-30T10:02:33;97360.53;;;19.34;46.74
50518;BME280;37075;44.084;2.962;2023-08-30T10:05:20;97370.38;;;19.42;46.80
50518;BME280;37075;44.084;2.962;2023-08-30T10:08:08;97367.19;;;19.51;46.77
50518;BME280;37075;44.084;2.962;2023-08-30T10:10:55;97371.19;;;19.54;46.74
50518;BME280;37075;44.084;2.962;2023-08-30T10:13:43;97360.06;;;19.61;45.97
50518;BME280;37075;44.084;2.962;2023-08-30T10:16:37;97354.47;;;19.79;46.34
50518;BME280;37075;44.084;2.962;2023-08-30T10:19:27;97359.09;;;19.96;46.63
50518;BME280;37075;44.084;2.962;2023-08-30T10:22:14;97355.13;;;20.04;45.17
50518;BME280;37075;44.084;2.962;2023-08-30T10:25:06;97355.50;;;20.06;44.44
50518;BME280;37075;44.084;2.962;2023-08-30T10:27:55;97362.25;;;20.05;44.33
50518;BME280;37075;44.084;2.962;2023-08-30T10:30:42;97365.41;;;20.00;43.59
50518;BME280;37075;44.084;2.962;2023-08-30T10:33:28;97356.69;;;20.05;43.65
50518;BME280;37075;44.084;2.962;2023-08-30T10:36:20;97357.81;;;20.15;43.57
50518;BME280;37075;44.084;2.962;2023-08-30T10:39:11;97356.53;;;20.30;43.64
50518;BME280;37075;44.084;2.962;2023-08-30T10:41:58;97355.63;;;20.47;44.10
50518;BME280;37075;44.084;2.962;2023-08-30T10:44:47;97367.84;;;20.57;42.75
50518;BME280;37075;44.084;2.962;2023-08-30T10:47:35;97355.53;;;20.61;42.57
50518;BME280;37075;44.084;2.962;2023-08-30T10:50:28;97340.03;;;20.68;42.40
50518;BME280;37075;44.084;2.962;2023-08-30T10:53:15;97347.53;;;20.71;42.26
50518;BME280;37075;44.084;2.962;2023-08-30T10:56:09;97339.44;;;20.90;42.17
50518;BME280;37075;44.084;2.962;2023-08-30T10:58:57;97340.06;;;21.09;42.39
50518;BME280;37075;44.084;2.962;2023-08-30T11:01:43;97341.53;;;21.17;41.05
50518;BME280;37075;44.084;2.962;2023-08-30T11:04:30;97356.69;;;21.09;40.96
50518;BME280;37075;44.084;2.962;2023-08-30T11:07:16;97353.91;;;21.09;41.86
50518;BME280;37075;44.084;2.962;2023-08-30T11:10:04;97351.44;;;21.18;40.76
50518;BME280;37075;44.084;2.962;2023-08-30T11:12:51;97351.81;;;21.20;40.58
50518;BME280;37075;44.084;2.962;2023-08-30T11:15:38;97347.03;;;21.20;40.62
50518;BME280;37075;44.084;2.962;2023-08-30T11:18:25;97352.91;;;21.30;40.69
50518;BME280;37075;44.084;2.962;2023-08-30T11:21:11;97348.88;;;21.38;40.04
50518;BME280;37075;44.084;2.962;2023-08-30T11:23:57;97342.53;;;21.37;39.72
50518;BME280;37075;44.084;2.962;2023-08-30T11:26:43;97340.88;;;21.43;39.42
50518;BME280;37075;44.084;2.962;2023-08-30T11:29:30;97344.44;;;21.44;40.15
50518;BME280;37075;44.084;2.962;2023-08-30T11:35:24;97340.78;;;21.50;39.88
50518;BME280;37075;44.084;2.962;2023-08-30T11:38:10;97332.38;;;21.58;39.50
50518;BME280;37075;44.084;2.962;2023-08-30T11:40:56;97332.41;;;21.54;40.32
50518;BME280;37075;44.084;2.962;2023-08-30T11:43:43;97325.53;;;21.66;39.90
50518;BME280;37075;44.084;2.962;2023-08-30T11:46:30;97336.06;;;21.78;39.65
50518;BME280;37075;44.084;2.962;2023-08-30T11:49:18;97325.69;;;21.82;39.27
50518;BME280;37075;44.084;2.962;2023-08-30T11:52:05;97324.50;;;21.83;38.81
50518;BME280;37075;44.084;2.962;2023-08-30T11:54:53;97320.94;;;21.82;38.73
50518;BME280;37075;44.084;2.962;2023-08-30T11:57:43;97307.28;;;21.95;38.78
50518;BME280;37075;44.084;2.962;2023-08-30T12:00:32;97317.91;;;22.04;38.78
50518;BME280;37075;44.084;2.962;2023-08-30T12:03:19;97319.03;;;22.06;38.57
50518;BME280;37075;44.084;2.962;2023-08-30T12:06:11;97327.81;;;22.01;38.23
50518;BME280;37075;44.084;2.962;2023-08-30T12:08:57;97319.13;;;21.99;37.87
50518;BME280;37075;44.084;2.962;2023-08-30T12:11:43;97304.75;;;22.08;38.35
50518;BME280;37075;44.084;2.962;2023-08-30T12:14:54;97316.56;;;22.15;37.52
50518;BME280;37075;44.084;2.962;2023-08-30T12:17:41;97327.38;;;22.06;37.71
50518;BME280;37075;44.084;2.962;2023-08-30T12:20:28;97316.59;;;22.12;38.07
50518;BME280;37075;44.084;2.962;2023-08-30T12:23:21;97310.09;;;22.22;37.71
50518;BME280;37075;44.084;2.962;2023-08-30T12:26:08;97322.00;;;22.23;37.53
50518;BME280;37075;44.084;2.962;2023-08-30T12:28:54;97317.22;;;22.23;36.89
50518;BME280;37075;44.084;2.962;2023-08-30T12:31:40;97329.84;;;22.28;36.75
50518;BME280;37075;44.084;2.962;2023-08-30T12:34:26;97318.94;;;22.40;37.47
50518;BME280;37075;44.084;2.962;2023-08-30T12:37:13;97323.09;;;22.52;37.07
50518;BME280;37075;44.084;2.962;2023-08-30T12:40:00;97307.00;;;22.67;36.77
50518;BME280;37075;44.084;2.962;2023-08-30T12:42:47;97316.84;;;22.71;36.49
50518;BME280;37075;44.084;2.962;2023-08-30T12:45:33;97308.31;;;22.82;36.58
50518;BME280;37075;44.084;2.962;2023-08-30T12:48:19;97320.47;;;22.92;36.20
50518;BME280;37075;44.084;2.962;2023-08-30T12:51:05;97320.94;;;22.87;35.75
50518;BME280;37075;44.084;2.962;2023-08-30T12:53:52;97318.41;;;22.96;36.40
50518;BME280;37075;44.084;2.962;2023-08-30T12:56:39;97313.84;;;23.05;36.00
50518;BME280;37075;44.084;2.962;2023-08-30T12:59:25;97307.72;;;23.14;36.10
50518;BME280;37075;44.084;2.962;2023-08-30T13:02:11;97311.03;;;23.29;35.65
50518;BME280;37075;44.084;2.962;2023-08-30T13:04:58;97298.75;;;23.46;35.67
50518;BME280;37075;44.084;2.962;2023-08-30T13:07:44;97308.41;;;23.61;35.39
50518;BME280;37075;44.084;2.962;2023-08-30T13:10:30;97297.25;;;23.81;34.61
50518;BME280;37075;44.084;2.962;2023-08-30T13:13:17;97291.13;;;24.22;35.03
50518;BME280;37075;44.084;2.962;2023-08-30T13:16:05;97293.50;;;24.40;34.63
50518;BME280;37075;44.084;2.962;2023-08-30T13:18:51;97298.03;;;24.67;33.59
50518;BME280;37075;44.084;2.962;2023-08-30T13:21:37;97293.03;;;24.90;33.04
50518;BME280;37075;44.084;2.962;2023-08-30T13:24:23;97284.09;;;25.12;32.96
50518;BME280;37075;44.084;2.962;2023-08-30T13:27:09;97298.84;;;25.41;33.01
50518;BME280;37075;44.084;2.962;2023-08-30T13:29:57;97297.41;;;25.91;32.45
50518;BME280;37075;44.084;2.962;2023-08-30T13:32:43;97297.63;;;26.22;31.43
50518;BME280;37075;44.084;2.962;2023-08-30T13:35:29;97293.59;;;26.23;30.75
50518;BME280;37075;44.084;2.962;2023-08-30T13:38:15;97286.69;;;26.15;30.30
50518;BME280;37075;44.084;2.962;2023-08-30T13:41:01;97298.09;;;26.33;31.44
50518;BME280;37075;44.084;2.962;2023-08-30T13:43:48;97285.75;;;26.69;30.87
50518;BME280;37075;44.084;2.962;2023-08-30T13:46:35;97281.75;;;26.92;30.03
50518;BME280;37075;44.084;2.962;2023-08-30T13:49:21;97278.19;;;26.91;29.85
50518;BME280;37075;44.084;2.962;2023-08-30T13:52:07;97284.75;;;26.97;29.72
50518;BME280;37075;44.084;2.962;2023-08-30T13:54:53;97299.34;;;27.27;29.74
50518;BME280;37075;44.084;2.962;2023-08-30T13:57:40;97274.63;;;27.56;29.30
50518;BME280;37075;44.084;2.962;2023-08-30T14:00:26;97287.00;;;28.21;28.98
50518;BME280;37075;44.084;2.962;2023-08-30T14:03:14;97286.53;;;28.63;27.97
50518;BME280;37075;44.084;2.962;2023-08-30T14:06:00;97277.69;;;29.10;27.17
50518;BME280;37075;44.084;2.962;2023-08-30T14:08:46;97273.78;;;29.44;26.62
50518;BME280;37075;44.084;2.962;2023-08-30T14:11:32;97276.28;;;29.60;26.06
50518;BME280;37075;44.084;2.962;2023-08-30T14:14:20;97281.66;;;29.91;26.01
50518;BME280;37075;44.084;2.962;2023-08-30T14:17:06;97273.13;;;30.28;25.17
50518;BME280;37075;44.084;2.962;2023-08-30T14:19:54;97271.78;;;30.47;24.93
50518;BME280;37075;44.084;2.962;2023-08-30T14:22:40;97275.84;;;30.46;24.85
50518;BME280;37075;44.084;2.962;2023-08-30T14:25:26;97272.22;;;30.79;24.84
50518;BME280;37075;44.084;2.962;2023-08-30T14:28:12;97284.47;;;31.14;24.28
50518;BME280;37075;44.084;2.962;2023-08-30T14:30:58;97274.56;;;31.57;23.37
50518;BME280;37075;44.084;2.962;2023-08-30T14:34:03;97271.41;;;31.79;23.09
50518;BME280;37075;44.084;2.962;2023-08-30T14:36:51;97287.50;;;31.94;22.42
50518;BME280;37075;44.084;2.962;2023-08-30T14:39:37;97283.34;;;31.89;22.73
50518;BME280;37075;44.084;2.962;2023-08-30T14:42:22;97284.13;;;31.89;22.42
50518;BME280;37075;44.084;2.962;2023-08-30T14:45:09;97278.97;;;32.03;22.18
50518;BME280;37075;44.084;2.962;2023-08-30T14:47:55;97276.13;;;32.32;22.57
50518;BME280;37075;44.084;2.962;2023-08-30T14:50:41;97277.84;;;32.79;22.11